Página principal
METAR-TAF:

METAR-TAF

Aeroportos :

Aeroporto de Gibraltar

Gibraltar, Gibraltar

latitude: 36-09N, longitude: 005-21W, altura: 5 m

Observação actual do tempo

O boletim foi feito há 49 minutos, às 16:50 UTC
Vento 20 kt de este
Temperatura 16°C
Humidade 59%
Pressão 1023 hPa
Visibilidade 10 km ou mais
Poucas nuvensa uma altura de 1400 ft
Nuvens dispersasa uma altura de 2800 ft

METAR: LXGB 201650Z 09020KT 9999 FEW014 SCT028 16/08 Q1023 BLU

Hora: 18:39 (17:39 UTC)

Previsão

O boletim foi feito há 3 horas e 54 minutos, às 13:45 UTC
Previsão válida de 20 às 15 UTC a 20 às 23 UTC
Vento 18 kt de este com rajadas de 28 kt
Visibilidade 10 km ou mais
Poucas nuvensa uma altura de 1400 ft
Nuvens dispersasa uma altura de 3000 ft
Temporariamente
de 20 às 15 UTC a 20 às 18 UTC
Vento 22 kt de este com rajadas de 34 kt

TAF: LXGB 201345Z 2015/2023 09018G28KT 9999 FEW014 SCT030 TEMPO 2015/2018 10022G34KT 530002

Observações e previsões do tempo de mais de 4000 aeroportos (mensagens METAR e TAF).

As estações disponíveis são os pontos amarelos e vermelhos sobre o mapa.

Mova o rato sobre o mapa para ver o nome da estação.

Depois clique no ponto para visualizar as observações e previsões meteorológicas.

Para alterar o mapa : clique nos botões verdes com uma cruz preta para aumentar o zoom; no botão verde com uma pitada de zoom; ou nas setas verdes para mapas adjacentes.


METAR-TAF: